sensor_id;sensor_type;location;lat;lon;timestamp;pressure;altitude;pressure_sealevel;temperature;humidity
21011;BME280;10663;42.714;23.274;2023-09-07T00:01:10;95227.13;;;22.54;70.93
21011;BME280;10663;42.714;23.274;2023-09-07T00:02:41;95217.69;;;22.39;71.03
21011;BME280;10663;42.714;23.274;2023-09-07T00:04:12;95218.81;;;22.59;70.97
21011;BME280;10663;42.714;23.274;2023-09-07T00:05:44;95218.44;;;22.48;70.39
21011;BME280;10663;42.714;23.274;2023-09-07T00:07:15;95223.78;;;22.27;71.20
21011;BME280;10663;42.714;23.274;2023-09-07T00:08:46;95210.78;;;22.50;71.46
21011;BME280;10663;42.714;23.274;2023-09-07T00:10:17;95224.66;;;22.11;71.01
21011;BME280;10663;42.714;23.274;2023-09-07T00:11:48;95223.25;;;21.96;71.98
21011;BME280;10663;42.714;23.274;2023-09-07T00:13:19;95220.28;;;21.80;72.44
21011;BME280;10663;42.714;23.274;2023-09-07T00:14:50;95212.16;;;21.97;72.30
21011;BME280;10663;42.714;23.274;2023-09-07T00:16:21;95219.63;;;22.00;72.44
21011;BME280;10663;42.714;23.274;2023-09-07T00:17:51;95220.72;;;21.99;71.79
21011;BME280;10663;42.714;23.274;2023-09-07T00:19:22;95224.53;;;21.98;72.88
21011;BME280;10663;42.714;23.274;2023-09-07T00:20:53;95219.00;;;21.86;72.27
21011;BME280;10663;42.714;23.274;2023-09-07T00:22:24;95218.94;;;21.65;71.88
21011;BME280;10663;42.714;23.274;2023-09-07T00:23:58;95217.53;;;21.42;72.83
21011;BME280;10663;42.714;23.274;2023-09-07T00:25:29;95223.38;;;21.53;72.65
21011;BME280;10663;42.714;23.274;2023-09-07T00:27:00;95225.59;;;21.51;73.50
21011;BME280;10663;42.714;23.274;2023-09-07T00:28:30;95215.84;;;21.29;72.90
21011;BME280;10663;42.714;23.274;2023-09-07T00:30:02;95216.94;;;21.19;73.71
21011;BME280;10663;42.714;23.274;2023-09-07T00:31:35;95217.56;;;21.08;74.13
21011;BME280;10663;42.714;23.274;2023-09-07T00:33:07;95215.03;;;21.37;74.78
21011;BME280;10663;42.714;23.274;2023-09-07T00:34:38;95218.75;;;21.62;73.26
21011;BME280;10663;42.714;23.274;2023-09-07T00:36:09;95220.00;;;21.73;72.15
21011;BME280;10663;42.714;23.274;2023-09-07T00:37:40;95219.31;;;22.02;72.68
21011;BME280;10663;42.714;23.274;2023-09-07T00:39:11;95220.66;;;22.17;70.98
21011;BME280;10663;42.714;23.274;2023-09-07T00:40:44;95223.75;;;21.98;71.21
21011;BME280;10663;42.714;23.274;2023-09-07T00:42:16;95219.03;;;22.24;71.71
21011;BME280;10663;42.714;23.274;2023-09-07T00:43:47;95214.41;;;22.25;71.15
21011;BME280;10663;42.714;23.274;2023-09-07T00:45:18;95218.47;;;22.10;71.03
21011;BME280;10663;42.714;23.274;2023-09-07T00:46:50;95216.59;;;22.02;71.25
21011;BME280;10663;42.714;23.274;2023-09-07T00:48:22;95215.09;;;22.13;71.73
21011;BME280;10663;42.714;23.274;2023-09-07T00:49:54;95222.31;;;21.92;71.98
21011;BME280;10663;42.714;23.274;2023-09-07T00:51:26;95219.81;;;21.78;72.61
21011;BME280;10663;42.714;23.274;2023-09-07T00:52:59;95220.41;;;21.92;72.53
21011;BME280;10663;42.714;23.274;2023-09-07T00:54:30;95214.78;;;22.15;72.71
21011;BME280;10663;42.714;23.274;2023-09-07T00:56:01;95216.81;;;21.80;73.09
21011;BME280;10663;42.714;23.274;2023-09-07T00:57:33;95217.97;;;21.61;74.34
21011;BME280;10663;42.714;23.274;2023-09-07T00:59:07;95221.84;;;21.90;73.76
21011;BME280;10663;42.714;23.274;2023-09-07T01:00:39;95219.84;;;22.16;72.73
21011;BME280;10663;42.714;23.274;2023-09-07T01:02:10;95221.63;;;22.12;72.57
21011;BME280;10663;42.714;23.274;2023-09-07T01:03:42;95223.06;;;22.10;72.97
21011;BME280;10663;42.714;23.274;2023-09-07T01:05:13;95215.16;;;21.96;73.58
21011;BME280;10663;42.714;23.274;2023-09-07T01:06:51;95215.03;;;21.92;73.57
21011;BME280;10663;42.714;23.274;2023-09-07T01:08:25;95214.06;;;21.88;74.08
21011;BME280;10663;42.714;23.274;2023-09-07T01:09:59;95217.59;;;21.80;74.12
21011;BME280;10663;42.714;23.274;2023-09-07T01:11:36;95220.69;;;22.08;73.55
21011;BME280;10663;42.714;23.274;2023-09-07T01:13:08;95201.84;;;21.99;73.39
21011;BME280;10663;42.714;23.274;2023-09-07T01:14:39;95209.78;;;21.87;74.01
21011;BME280;10663;42.714;23.274;2023-09-07T01:16:10;95215.16;;;22.05;73.69
21011;BME280;10663;42.714;23.274;2023-09-07T01:17:43;95214.47;;;22.16;73.39
21011;BME280;10663;42.714;23.274;2023-09-07T01:19:14;95216.84;;;22.18;73.60
21011;BME280;10663;42.714;23.274;2023-09-07T01:20:45;95209.06;;;22.16;73.78
21011;BME280;10663;42.714;23.274;2023-09-07T01:22:19;95211.19;;;22.31;73.26
21011;BME280;10663;42.714;23.274;2023-09-07T01:23:51;95209.97;;;22.29;73.46
21011;BME280;10663;42.714;23.274;2023-09-07T01:25:23;95208.66;;;22.35;73.23
21011;BME280;10663;42.714;23.274;2023-09-07T01:26:54;95214.69;;;22.32;73.27
21011;BME280;10663;42.714;23.274;2023-09-07T01:28:25;95218.09;;;22.20;73.81
21011;BME280;10663;42.714;23.274;2023-09-07T01:29:57;95215.63;;;22.36;72.97
21011;BME280;10663;42.714;23.274;2023-09-07T01:31:28;95219.94;;;21.99;74.50
21011;BME280;10663;42.714;23.274;2023-09-07T01:32:59;95218.50;;;21.93;74.90
21011;BME280;10663;42.714;23.274;2023-09-07T01:34:30;95215.28;;;21.53;76.38
21011;BME280;10663;42.714;23.274;2023-09-07T01:36:01;95217.56;;;21.34;77.13
21011;BME280;10663;42.714;23.274;2023-09-07T01:37:32;95219.44;;;21.42;77.94
21011;BME280;10663;42.714;23.274;2023-09-07T01:39:04;95220.50;;;21.67;76.92
21011;BME280;10663;42.714;23.274;2023-09-07T01:40:39;95215.06;;;21.84;76.03
21011;BME280;10663;42.714;23.274;2023-09-07T01:42:10;95218.38;;;21.81;76.10
21011;BME280;10663;42.714;23.274;2023-09-07T01:43:41;95215.34;;;21.99;75.05
21011;BME280;10663;42.714;23.274;2023-09-07T01:45:12;95222.47;;;21.87;76.01
21011;BME280;10663;42.714;23.274;2023-09-07T01:46:43;95218.47;;;22.10;75.05
21011;BME280;10663;42.714;23.274;2023-09-07T01:48:14;95211.03;;;22.36;74.16
21011;BME280;10663;42.714;23.274;2023-09-07T01:49:46;95223.81;;;22.19;74.39
21011;BME280;10663;42.714;23.274;2023-09-07T01:51:17;95218.22;;;22.24;74.31
21011;BME280;10663;42.714;23.274;2023-09-07T01:52:48;95221.88;;;22.28;74.64
21011;BME280;10663;42.714;23.274;2023-09-07T01:54:22;95218.19;;;22.32;74.12
21011;BME280;10663;42.714;23.274;2023-09-07T01:55:56;95229.28;;;22.39;73.99
21011;BME280;10663;42.714;23.274;2023-09-07T01:57:27;95219.16;;;22.28;74.48
21011;BME280;10663;42.714;23.274;2023-09-07T01:58:57;95220.88;;;22.32;74.03
21011;BME280;10663;42.714;23.274;2023-09-07T02:00:29;95221.13;;;22.48;73.73
21011;BME280;10663;42.714;23.274;2023-09-07T02:02:01;95212.03;;;22.53;73.33
21011;BME280;10663;42.714;23.274;2023-09-07T02:03:32;95218.28;;;22.45;73.71
21011;BME280;10663;42.714;23.274;2023-09-07T02:05:03;95218.34;;;22.36;73.96
21011;BME280;10663;42.714;23.274;2023-09-07T02:06:34;95223.19;;;22.13;74.38
21011;BME280;10663;42.714;23.274;2023-09-07T02:08:05;95211.72;;;22.25;74.57
21011;BME280;10663;42.714;23.274;2023-09-07T02:09:36;95218.16;;;22.12;75.22
21011;BME280;10663;42.714;23.274;2023-09-07T02:11:07;95215.03;;;22.01;75.49
21011;BME280;10663;42.714;23.274;2023-09-07T02:12:38;95211.84;;;21.99;75.49
21011;BME280;10663;42.714;23.274;2023-09-07T02:14:09;95220.50;;;22.13;75.16
21011;BME280;10663;42.714;23.274;2023-09-07T02:15:40;95218.00;;;22.08;75.20
21011;BME280;10663;42.714;23.274;2023-09-07T02:17:11;95224.19;;;22.09;75.48
21011;BME280;10663;42.714;23.274;2023-09-07T02:18:50;95213.56;;;22.03;75.50
21011;BME280;10663;42.714;23.274;2023-09-07T02:20:21;95217.34;;;22.11;75.46
21011;BME280;10663;42.714;23.274;2023-09-07T02:21:52;95220.25;;;21.97;75.39
21011;BME280;10663;42.714;23.274;2023-09-07T02:23:23;95224.88;;;21.88;75.85
21011;BME280;10663;42.714;23.274;2023-09-07T02:24:54;95225.97;;;21.87;76.33
21011;BME280;10663;42.714;23.274;2023-09-07T02:26:25;95218.78;;;22.09;75.79
21011;BME280;10663;42.714;23.274;2023-09-07T02:27:56;95229.75;;;22.03;75.83
21011;BME280;10663;42.714;23.274;2023-09-07T02:29:27;95220.72;;;21.99;76.11
21011;BME280;10663;42.714;23.274;2023-09-07T02:31:05;95224.28;;;22.21;75.39
21011;BME280;10663;42.714;23.274;2023-09-07T02:32:36;95215.16;;;22.34;74.85
21011;BME280;10663;42.714;23.274;2023-09-07T02:34:07;95215.56;;;22.15;75.24
21011;BME280;10663;42.714;23.274;2023-09-07T02:35:38;95220.84;;;22.12;75.57
21011;BME280;10663;42.714;23.274;2023-09-07T02:37:10;95222.66;;;22.28;75.16
21011;BME280;10663;42.714;23.274;2023-09-07T02:38:40;95217.69;;;22.39;74.75
21011;BME280;10663;42.714;23.274;2023-09-07T02:40:12;95221.03;;;22.36;74.88
21011;BME280;10663;42.714;23.274;2023-09-07T02:41:43;95223.56;;;22.32;74.51
21011;BME280;10663;42.714;23.274;2023-09-07T02:43:13;95218.69;;;22.26;74.97
21011;BME280;10663;42.714;23.274;2023-09-07T02:44:44;95221.72;;;22.24;75.19
21011;BME280;10663;42.714;23.274;2023-09-07T02:46:15;95225.56;;;22.15;75.92
21011;BME280;10663;42.714;23.274;2023-09-07T02:47:47;95215.16;;;22.34;75.36
21011;BME280;10663;42.714;23.274;2023-09-07T02:49:19;95214.84;;;22.35;75.04
21011;BME280;10663;42.714;23.274;2023-09-07T02:51:01;95221.19;;;22.31;75.11
21011;BME280;10663;42.714;23.274;2023-09-07T02:52:33;95218.69;;;22.55;74.55
21011;BME280;10663;42.714;23.274;2023-09-07T02:54:04;95222.03;;;22.52;74.93
21011;BME280;10663;42.714;23.274;2023-09-07T02:55:39;95219.75;;;22.33;75.21
21011;BME280;10663;42.714;23.274;2023-09-07T02:57:10;95225.16;;;22.33;75.60
21011;BME280;10663;42.714;23.274;2023-09-07T02:58:41;95224.50;;;22.07;75.43
21011;BME280;10663;42.714;23.274;2023-09-07T03:00:12;95224.78;;;22.14;76.53
21011;BME280;10663;42.714;23.274;2023-09-07T03:01:43;95221.00;;;22.07;76.14
21011;BME280;10663;42.714;23.274;2023-09-07T03:03:14;95227.06;;;21.48;77.81
21011;BME280;10663;42.714;23.274;2023-09-07T03:04:46;95229.13;;;21.34;78.98
21011;BME280;10663;42.714;23.274;2023-09-07T03:06:17;95224.66;;;21.55;78.43
21011;BME280;10663;42.714;23.274;2023-09-07T03:07:50;95233.09;;;21.37;78.75
21011;BME280;10663;42.714;23.274;2023-09-07T03:09:23;95226.25;;;21.05;80.12
21011;BME280;10663;42.714;23.274;2023-09-07T03:10:54;95233.88;;;21.03;80.69
21011;BME280;10663;42.714;23.274;2023-09-07T03:12:25;95230.06;;;20.78;81.85
21011;BME280;10663;42.714;23.274;2023-09-07T03:13:56;95230.72;;;20.83;82.18
21011;BME280;10663;42.714;23.274;2023-09-07T03:15:27;95226.91;;;21.10;81.54
21011;BME280;10663;42.714;23.274;2023-09-07T03:16:58;95233.91;;;21.20;80.35
21011;BME280;10663;42.714;23.274;2023-09-07T03:18:29;95233.09;;;21.28;80.16
21011;BME280;10663;42.714;23.274;2023-09-07T03:20:01;95228.78;;;21.44;79.83
21011;BME280;10663;42.714;23.274;2023-09-07T03:21:38;95223.56;;;21.48;80.07
21011;BME280;10663;42.714;23.274;2023-09-07T03:23:09;95230.50;;;21.66;79.03
21011;BME280;10663;42.714;23.274;2023-09-07T03:24:40;95234.53;;;21.89;78.58
21011;BME280;10663;42.714;23.274;2023-09-07T03:26:12;95225.56;;;22.15;77.45
21011;BME280;10663;42.714;23.274;2023-09-07T03:27:43;95229.50;;;22.26;76.68
21011;BME280;10663;42.714;23.274;2023-09-07T03:29:16;95236.16;;;22.28;76.72
21011;BME280;10663;42.714;23.274;2023-09-07T03:30:47;95234.53;;;21.98;78.15
21011;BME280;10663;42.714;23.274;2023-09-07T03:32:18;95233.28;;;21.87;78.64
21011;BME280;10663;42.714;23.274;2023-09-07T03:33:49;95237.59;;;21.79;79.47
21011;BME280;10663;42.714;23.274;2023-09-07T03:35:20;95227.56;;;21.88;79.16
21011;BME280;10663;42.714;23.274;2023-09-07T03:36:51;95237.53;;;21.96;78.33
21011;BME280;10663;42.714;23.274;2023-09-07T03:38:22;95231.66;;;21.94;78.73
21011;BME280;10663;42.714;23.274;2023-09-07T03:39:53;95234.38;;;21.86;79.01
21011;BME280;10663;42.714;23.274;2023-09-07T03:41:24;95237.88;;;21.86;78.52
21011;BME280;10663;42.714;23.274;2023-09-07T03:43:01;95238.19;;;22.02;78.19
21011;BME280;10663;42.714;23.274;2023-09-07T03:44:32;95234.53;;;21.89;78.57
21011;BME280;10663;42.714;23.274;2023-09-07T03:46:03;95239.97;;;21.81;79.28
21011;BME280;10663;42.714;23.274;2023-09-07T03:47:34;95236.94;;;21.82;78.44
21011;BME280;10663;42.714;23.274;2023-09-07T03:49:05;95237.00;;;21.65;79.65
21011;BME280;10663;42.714;23.274;2023-09-07T03:50:37;95239.50;;;21.70;79.41
21011;BME280;10663;42.714;23.274;2023-09-07T03:52:09;95242.50;;;21.77;79.69
21011;BME280;10663;42.714;23.274;2023-09-07T03:53:40;95241.22;;;21.83;79.73
21011;BME280;10663;42.714;23.274;2023-09-07T03:55:11;95242.53;;;21.69;79.83
21011;BME280;10663;42.714;23.274;2023-09-07T03:56:43;95253.22;;;21.48;81.20
21011;BME280;10663;42.714;23.274;2023-09-07T03:58:14;95246.06;;;21.43;81.05
21011;BME280;10663;42.714;23.274;2023-09-07T03:59:47;95247.16;;;21.51;81.88
21011;BME280;10663;42.714;23.274;2023-09-07T04:01:19;95247.13;;;21.59;81.47
21011;BME280;10663;42.714;23.274;2023-09-07T04:02:50;95253.00;;;21.61;80.98
21011;BME280;10663;42.714;23.274;2023-09-07T04:04:20;95260.94;;;21.58;81.32
21011;BME280;10663;42.714;23.274;2023-09-07T04:05:51;95249.19;;;21.71;81.34
21011;BME280;10663;42.714;23.274;2023-09-07T04:07:23;95255.56;;;21.49;81.50
21011;BME280;10663;42.714;23.274;2023-09-07T04:08:55;95258.25;;;21.58;81.63
21011;BME280;10663;42.714;23.274;2023-09-07T04:10:26;95254.56;;;21.71;81.41
21011;BME280;10663;42.714;23.274;2023-09-07T04:11:57;95259.66;;;21.73;81.94
21011;BME280;10663;42.714;23.274;2023-09-07T04:13:27;95255.66;;;21.79;81.45
21011;BME280;10663;42.714;23.274;2023-09-07T04:15:01;95262.31;;;21.98;80.76
21011;BME280;10663;42.714;23.274;2023-09-07T04:16:32;95260.41;;;21.82;80.72
21011;BME280;10663;42.714;23.274;2023-09-07T04:18:03;95252.25;;;21.44;82.78
21011;BME280;10663;42.714;23.274;2023-09-07T04:19:34;95253.94;;;21.74;81.54
21011;BME280;10663;42.714;23.274;2023-09-07T04:21:08;95261.06;;;21.70;81.83
21011;BME280;10663;42.714;23.274;2023-09-07T04:22:40;95259.19;;;21.62;82.68
21011;BME280;10663;42.714;23.274;2023-09-07T04:24:13;95252.03;;;21.75;82.29
21011;BME280;10663;42.714;23.274;2023-09-07T04:25:44;95256.59;;;22.00;81.62
21011;BME280;10663;42.714;23.274;2023-09-07T04:27:16;95248.63;;;22.03;82.17
21011;BME280;10663;42.714;23.274;2023-09-07T04:28:48;95255.28;;;22.06;81.95
21011;BME280;10663;42.714;23.274;2023-09-07T04:30:19;95254.81;;;22.04;82.11
21011;BME280;10663;42.714;23.274;2023-09-07T04:31:50;95249.03;;;22.23;80.94
21011;BME280;10663;42.714;23.274;2023-09-07T04:33:21;95251.66;;;22.02;81.30
21011;BME280;10663;42.714;23.274;2023-09-07T04:34:54;95255.47;;;22.01;80.83
21011;BME280;10663;42.714;23.274;2023-09-07T04:36:25;95263.72;;;21.87;81.19
21011;BME280;10663;42.714;23.274;2023-09-07T04:37:56;95261.66;;;21.93;81.41
21011;BME280;10663;42.714;23.274;2023-09-07T04:39:27;95264.84;;;21.86;80.90
21011;BME280;10663;42.714;23.274;2023-09-07T04:41:13;95269.41;;;21.94;81.30
21011;BME280;10663;42.714;23.274;2023-09-07T04:42:45;95262.66;;;21.71;81.89
21011;BME280;10663;42.714;23.274;2023-09-07T04:44:16;95265.00;;;21.90;81.14
21011;BME280;10663;42.714;23.274;2023-09-07T04:45:47;95267.69;;;21.90;81.53
21011;BME280;10663;42.714;23.274;2023-09-07T04:47:18;95267.22;;;21.88;81.17
21011;BME280;10663;42.714;23.274;2023-09-07T04:48:50;95268.66;;;21.77;81.79
21011;BME280;10663;42.714;23.274;2023-09-07T04:50:21;95278.81;;;21.80;81.20
21011;BME280;10663;42.714;23.274;2023-09-07T04:51:53;95270.13;;;21.65;81.90
21011;BME280;10663;42.714;23.274;2023-09-07T04:53:24;95270.47;;;21.55;82.30
21011;BME280;10663;42.714;23.274;2023-09-07T04:54:55;95277.09;;;21.58;82.43
21011;BME280;10663;42.714;23.274;2023-09-07T04:56:26;95272.19;;;21.69;81.82
21011;BME280;10663;42.714;23.274;2023-09-07T04:57:58;95271.13;;;21.35;83.55
21011;BME280;10663;42.714;23.274;2023-09-07T04:59:29;95277.47;;;21.22;83.64
21011;BME280;10663;42.714;23.274;2023-09-07T05:01:08;95278.59;;;21.38;84.04
21011;BME280;10663;42.714;23.274;2023-09-07T05:02:39;95275.69;;;21.60;82.36
21011;BME280;10663;42.714;23.274;2023-09-07T05:04:13;95274.59;;;21.44;82.66
21011;BME280;10663;42.714;23.274;2023-09-07T05:05:44;95283.47;;;21.45;82.56
21011;BME280;10663;42.714;23.274;2023-09-07T05:07:16;95273.66;;;21.32;83.88
21011;BME280;10663;42.714;23.274;2023-09-07T05:08:47;95276.03;;;21.24;84.29
21011;BME280;10663;42.714;23.274;2023-09-07T05:10:17;95276.63;;;21.04;84.67
21011;BME280;10663;42.714;23.274;2023-09-07T05:11:49;95276.66;;;21.21;84.63
21011;BME280;10663;42.714;23.274;2023-09-07T05:13:20;95278.69;;;20.81;86.05
21011;BME280;10663;42.714;23.274;2023-09-07T05:14:50;95287.09;;;20.88;86.68
21011;BME280;10663;42.714;23.274;2023-09-07T05:16:22;95280.09;;;20.70;87.20
21011;BME280;10663;42.714;23.274;2023-09-07T05:17:53;95277.56;;;20.65;88.43
21011;BME280;10663;42.714;23.274;2023-09-07T05:19:24;95279.19;;;21.01;86.22
21011;BME280;10663;42.714;23.274;2023-09-07T05:20:55;95280.13;;;21.05;85.63
21011;BME280;10663;42.714;23.274;2023-09-07T05:22:27;95283.13;;;20.86;85.71
21011;BME280;10663;42.714;23.274;2023-09-07T05:23:58;95277.28;;;20.92;85.97
21011;BME280;10663;42.714;23.274;2023-09-07T05:25:30;95285.38;;;21.01;86.89
21011;BME280;10663;42.714;23.274;2023-09-07T05:27:01;95281.72;;;21.14;84.91
21011;BME280;10663;42.714;23.274;2023-09-07T05:28:33;95287.78;;;21.20;84.22
21011;BME280;10663;42.714;23.274;2023-09-07T05:30:05;95287.75;;;21.11;84.32
21011;BME280;10663;42.714;23.274;2023-09-07T05:31:37;95279.84;;;21.23;84.50
21011;BME280;10663;42.714;23.274;2023-09-07T05:33:12;95288.69;;;21.15;84.67
21011;BME280;10663;42.714;23.274;2023-09-07T05:34:43;95284.88;;;21.16;83.99
21011;BME280;10663;42.714;23.274;2023-09-07T05:36:14;95283.00;;;21.43;83.81
21011;BME280;10663;42.714;23.274;2023-09-07T05:37:45;95279.50;;;21.51;82.28
21011;BME280;10663;42.714;23.274;2023-09-07T05:39:19;95277.47;;;21.39;83.24
21011;BME280;10663;42.714;23.274;2023-09-07T05:40:52;95280.16;;;21.56;82.84
21011;BME280;10663;42.714;23.274;2023-09-07T05:42:25;95276.19;;;21.45;82.15
21011;BME280;10663;42.714;23.274;2023-09-07T05:43:56;95277.44;;;21.65;82.42
21011;BME280;10663;42.714;23.274;2023-09-07T05:45:49;95284.41;;;21.75;81.23
21011;BME280;10663;42.714;23.274;2023-09-07T05:47:20;95282.44;;;21.92;80.55
21011;BME280;10663;42.714;23.274;2023-09-07T05:48:51;95284.50;;;21.87;80.47
21011;BME280;10663;42.714;23.274;2023-09-07T05:50:21;95278.63;;;21.93;80.27
21011;BME280;10663;42.714;23.274;2023-09-07T05:51:53;95289.84;;;22.21;79.37
21011;BME280;10663;42.714;23.274;2023-09-07T05:53:24;95285.44;;;22.46;77.93
21011;BME280;10663;42.714;23.274;2023-09-07T05:54:56;95287.34;;;22.46;77.41
21011;BME280;10663;42.714;23.274;2023-09-07T05:56:27;95290.69;;;22.43;78.01
21011;BME280;10663;42.714;23.274;2023-09-07T05:57:58;95287.47;;;22.49;77.24
21011;BME280;10663;42.714;23.274;2023-09-07T05:59:31;95291.19;;;22.36;77.72
21011;BME280;10663;42.714;23.274;2023-09-07T06:01:02;95294.47;;;22.03;77.94
21011;BME280;10663;42.714;23.274;2023-09-07T06:02:33;95295.31;;;22.33;77.82
21011;BME280;10663;42.714;23.274;2023-09-07T06:04:04;95293.56;;;22.37;77.80
21011;BME280;10663;42.714;23.274;2023-09-07T06:05:35;95286.34;;;22.50;76.71
21011;BME280;10663;42.714;23.274;2023-09-07T06:07:53;95289.47;;;22.61;75.92
21011;BME280;10663;42.714;23.274;2023-09-07T06:09:24;95293.47;;;22.25;76.14
21011;BME280;10663;42.714;23.274;2023-09-07T06:10:55;95299.06;;;22.20;75.89
21011;BME280;10663;42.714;23.274;2023-09-07T06:12:26;95299.81;;;22.59;76.32
21011;BME280;10663;42.714;23.274;2023-09-07T06:13:58;95295.31;;;22.71;75.52
21011;BME280;10663;42.714;23.274;2023-09-07T06:15:29;95292.66;;;22.92;75.00
21011;BME280;10663;42.714;23.274;2023-09-07T06:17:00;95299.31;;;22.95;73.82
21011;BME280;10663;42.714;23.274;2023-09-07T06:18:31;95294.00;;;23.28;73.00
21011;BME280;10663;42.714;23.274;2023-09-07T06:20:02;95293.84;;;23.24;72.32
21011;BME280;10663;42.714;23.274;2023-09-07T06:21:33;95294.13;;;23.10;72.04
21011;BME280;10663;42.714;23.274;2023-09-07T06:23:04;95295.59;;;23.29;71.95
21011;BME280;10663;42.714;23.274;2023-09-07T06:24:35;95295.91;;;23.06;71.74
21011;BME280;10663;42.714;23.274;2023-09-07T06:26:07;95289.28;;;22.95;71.77
21011;BME280;10663;42.714;23.274;2023-09-07T06:27:38;95286.47;;;23.33;70.91
21011;BME280;10663;42.714;23.274;2023-09-07T06:29:09;95283.84;;;23.66;69.67
21011;BME280;10663;42.714;23.274;2023-09-07T06:30:40;95283.56;;;23.92;69.76
21011;BME280;10663;42.714;23.274;2023-09-07T06:32:11;95291.81;;;23.42;69.61
21011;BME280;10663;42.714;23.274;2023-09-07T06:33:42;95289.78;;;23.39;70.97
21011;BME280;10663;42.714;23.274;2023-09-07T06:35:13;95292.66;;;23.75;69.40
21011;BME280;10663;42.714;23.274;2023-09-07T06:36:44;95298.50;;;23.77;68.57
21011;BME280;10663;42.714;23.274;2023-09-07T06:38:15;95298.72;;;23.72;68.56
21011;BME280;10663;42.714;23.274;2023-09-07T06:39:47;95299.28;;;23.66;68.99
21011;BME280;10663;42.714;23.274;2023-09-07T06:41:18;95297.13;;;24.16;68.41
21011;BME280;10663;42.714;23.274;2023-09-07T06:42:49;95299.84;;;24.16;67.99
21011;BME280;10663;42.714;23.274;2023-09-07T06:44:23;95299.00;;;24.04;67.68
21011;BME280;10663;42.714;23.274;2023-09-07T06:45:55;95300.56;;;24.26;67.27
21011;BME280;10663;42.714;23.274;2023-09-07T06:47:26;95300.03;;;24.44;66.60
21011;BME280;10663;42.714;23.274;2023-09-07T06:48:56;95306.47;;;24.64;66.25
21011;BME280;10663;42.714;23.274;2023-09-07T06:50:28;95304.22;;;24.09;66.50
21011;BME280;10663;42.714;23.274;2023-09-07T06:51:59;95297.38;;;24.11;66.39
21011;BME280;10663;42.714;23.274;2023-09-07T06:53:30;95298.88;;;24.33;64.83
21011;BME280;10663;42.714;23.274;2023-09-07T06:55:02;95303.41;;;24.53;65.09
21011;BME280;10663;42.714;23.274;2023-09-07T06:56:33;95309.41;;;24.47;64.46
21011;BME280;10663;42.714;23.274;2023-09-07T06:58:05;95301.13;;;24.68;64.63
21011;BME280;10663;42.714;23.274;2023-09-07T06:59:36;95295.25;;;25.14;62.72
21011;BME280;10663;42.714;23.274;2023-09-07T07:01:07;95290.09;;;25.49;61.31
21011;BME280;10663;42.714;23.274;2023-09-07T07:02:39;95299.84;;;25.26;60.54
21011;BME280;10663;42.714;23.274;2023-09-07T07:04:10;95300.47;;;24.95;60.89
21011;BME280;10663;42.714;23.274;2023-09-07T07:05:41;95294.31;;;25.22;61.23
21011;BME280;10663;42.714;23.274;2023-09-07T07:07:13;95294.91;;;25.16;60.65
21011;BME280;10663;42.714;23.274;2023-09-07T07:08:43;95294.88;;;25.28;60.70
21011;BME280;10663;42.714;23.274;2023-09-07T07:10:14;95285.00;;;25.48;59.47
21011;BME280;10663;42.714;23.274;2023-09-07T07:11:45;95294.13;;;25.15;61.26
21011;BME280;10663;42.714;23.274;2023-09-07T07:13:16;95294.06;;;24.75;61.52
21011;BME280;10663;42.714;23.274;2023-09-07T07:14:47;95293.13;;;24.71;61.65
21011;BME280;10663;42.714;23.274;2023-09-07T07:16:18;95295.28;;;24.66;61.22
21011;BME280;10663;42.714;23.274;2023-09-07T07:17:49;95297.41;;;24.60;61.98
21011;BME280;10663;42.714;23.274;2023-09-07T07:19:20;95299.56;;;24.54;62.97
21011;BME280;10663;42.714;23.274;2023-09-07T07:20:51;95304.97;;;24.42;61.94
21011;BME280;10663;42.714;23.274;2023-09-07T07:22:22;95302.97;;;24.64;62.58
21011;BME280;10663;42.714;23.274;2023-09-07T07:23:55;95299.44;;;24.87;61.57
21011;BME280;10663;42.714;23.274;2023-09-07T07:25:26;95302.84;;;24.96;60.20
21011;BME280;10663;42.714;23.274;2023-09-07T07:26:58;95305.44;;;25.05;61.22
21011;BME280;10663;42.714;23.274;2023-09-07T07:28:30;95303.94;;;25.20;59.68
21011;BME280;10663;42.714;23.274;2023-09-07T07:30:00;95309.91;;;25.25;60.46
21011;BME280;10663;42.714;23.274;2023-09-07T07:31:31;95304.03;;;25.23;58.95
21011;BME280;10663;42.714;23.274;2023-09-07T07:33:04;95306.75;;;25.23;58.96
21011;BME280;10663;42.714;23.274;2023-09-07T07:34:36;95309.16;;;25.13;59.86
21011;BME280;10663;42.714;23.274;2023-09-07T07:36:07;95308.47;;;25.16;60.20
21011;BME280;10663;42.714;23.274;2023-09-07T07:37:38;95306.66;;;25.60;59.67
21011;BME280;10663;42.714;23.274;2023-09-07T07:39:10;95306.47;;;25.81;58.20
21011;BME280;10663;42.714;23.274;2023-09-07T07:40:41;95311.56;;;25.82;57.10
21011;BME280;10663;42.714;23.274;2023-09-07T07:42:14;95299.13;;;25.81;56.70
21011;BME280;10663;42.714;23.274;2023-09-07T07:43:46;95307.00;;;25.58;57.15
21011;BME280;10663;42.714;23.274;2023-09-07T07:45:17;95299.22;;;25.85;58.32
21011;BME280;10663;42.714;23.274;2023-09-07T07:46:50;95305.19;;;25.90;55.86
21011;BME280;10663;42.714;23.274;2023-09-07T07:48:22;95304.06;;;26.07;55.58
21011;BME280;10663;42.714;23.274;2023-09-07T07:49:53;95312.81;;;26.00;54.44
21011;BME280;10663;42.714;23.274;2023-09-07T07:51:23;95317.56;;;26.03;55.41
21011;BME280;10663;42.714;23.274;2023-09-07T07:52:56;95310.41;;;26.11;56.78
21011;BME280;10663;42.714;23.274;2023-09-07T07:54:26;95310.97;;;26.04;55.29
21011;BME280;10663;42.714;23.274;2023-09-07T07:56:00;95311.13;;;25.96;55.24
21011;BME280;10663;42.714;23.274;2023-09-07T07:57:31;95311.59;;;25.98;54.90
21011;BME280;10663;42.714;23.274;2023-09-07T07:59:02;95308.25;;;26.04;54.79
21011;BME280;10663;42.714;23.274;2023-09-07T08:00:35;95313.78;;;25.92;53.98